createdAt,value
2018-08-06T00:01:09.288Z,44.80
2018-08-06T00:03:45.696Z,45.00
2018-08-06T00:06:22.239Z,45.00
2018-08-06T00:08:59.456Z,45.30
2018-08-06T00:11:35.784Z,45.50
2018-08-06T00:14:12.479Z,44.90
2018-08-06T00:16:49.051Z,45.10
2018-08-06T00:19:25.491Z,45.20
2018-08-06T00:22:02.008Z,45.10
2018-08-06T00:24:38.375Z,45.40
2018-08-06T00:27:14.735Z,45.50
2018-08-06T00:29:51.124Z,44.90
2018-08-06T00:32:27.687Z,45.60
2018-08-06T00:35:04.403Z,45.50
2018-08-06T00:37:41.134Z,45.60
2018-08-06T00:40:21.403Z,45.60
2018-08-06T00:42:57.892Z,45.60
2018-08-06T00:45:34.352Z,45.90
2018-08-06T00:48:10.631Z,46.60
2018-08-06T00:50:47.114Z,46.10
2018-08-06T00:53:23.596Z,46.80
2018-08-06T00:55:59.884Z,46.60
2018-08-06T00:58:36.339Z,46.70
2018-08-06T01:01:12.802Z,46.70
2018-08-06T01:03:49.156Z,47.60
2018-08-06T01:06:25.728Z,47.10
2018-08-06T01:09:02.114Z,47.20
2018-08-06T01:11:39.050Z,47.20
2018-08-06T01:14:15.473Z,47.70
2018-08-06T01:16:52.383Z,47.70
2018-08-06T01:19:28.639Z,48.00
2018-08-06T01:22:05.151Z,47.80
2018-08-06T01:24:41.549Z,48.10
2018-08-06T01:27:18.119Z,48.20
2018-08-06T01:29:54.378Z,48.30
2018-08-06T01:32:30.699Z,48.20
2018-08-06T01:35:08.008Z,48.50
2018-08-06T01:37:44.482Z,48.70
2018-08-06T01:40:21.076Z,48.90
2018-08-06T01:42:57.523Z,49.20
2018-08-06T01:45:33.888Z,49.10
2018-08-06T01:48:10.342Z,49.20
2018-08-06T01:50:46.889Z,49.10
2018-08-06T01:53:23.217Z,49.80
2018-08-06T01:55:59.680Z,49.80
2018-08-06T01:58:36.100Z,49.70
2018-08-06T02:01:12.583Z,49.90
2018-08-06T02:03:49.188Z,50.30
2018-08-06T02:06:25.672Z,50.10
2018-08-06T02:09:02.668Z,50.40
2018-08-06T02:11:39.016Z,51.90
2018-08-06T02:14:15.395Z,50.50
2018-08-06T02:16:51.899Z,50.60
2018-08-06T02:19:28.372Z,51.00
2018-08-06T02:22:04.624Z,50.80
2018-08-06T02:24:41.092Z,50.80
2018-08-06T02:27:17.497Z,51.50
2018-08-06T02:29:53.826Z,51.60
2018-08-06T02:32:30.333Z,51.50
2018-08-06T02:35:08.524Z,51.90
2018-08-06T02:37:45.044Z,52.80
2018-08-06T02:40:22.484Z,53.90
2018-08-06T02:42:58.856Z,52.50
2018-08-06T02:45:36.809Z,53.20
2018-08-06T02:48:14.538Z,52.70
2018-08-06T02:50:51.560Z,53.70
2018-08-06T02:53:29.183Z,52.90
2018-08-06T02:56:05.856Z,52.50
2018-08-06T02:58:42.238Z,52.90
2018-08-06T03:01:18.693Z,52.70
2018-08-06T03:04:00.741Z,52.50
2018-08-06T03:06:37.042Z,53.50
2018-08-06T03:09:13.778Z,53.70
2018-08-06T03:11:50.310Z,53.50
2018-08-06T03:14:26.719Z,53.40
2018-08-06T03:17:03.070Z,53.90
2018-08-06T03:19:39.393Z,54.00
2018-08-06T03:22:15.890Z,54.80
2018-08-06T03:24:52.352Z,54.50
2018-08-06T03:27:28.617Z,54.40
2018-08-06T03:30:07.032Z,55.20
2018-08-06T03:32:44.395Z,54.40
2018-08-06T03:35:21.091Z,55.00
2018-08-06T03:37:57.541Z,54.70
2018-08-06T03:40:33.831Z,55.00
2018-08-06T03:43:10.283Z,55.20
2018-08-06T03:45:46.681Z,55.40
2018-08-06T03:48:23.106Z,55.50
2018-08-06T03:50:59.381Z,56.20
2018-08-06T03:53:35.845Z,56.40
2018-08-06T03:56:12.189Z,56.50
2018-08-06T03:58:49.801Z,56.40
2018-08-06T04:01:26.081Z,56.60
2018-08-06T04:04:02.630Z,55.90
2018-08-06T04:06:39.008Z,56.00
2018-08-06T04:09:15.446Z,56.00
2018-08-06T04:11:51.669Z,55.90
2018-08-06T04:14:28.171Z,55.80
2018-08-06T04:17:04.634Z,56.30
2018-08-06T04:19:40.962Z,56.70
2018-08-06T04:22:17.780Z,56.90
2018-08-06T04:24:58.026Z,57.80
2018-08-06T04:27:34.732Z,58.70
2018-08-06T04:30:13.895Z,57.10
2018-08-06T04:32:50.339Z,57.00
2018-08-06T04:35:26.792Z,56.80
2018-08-06T04:38:03.126Z,56.30
2018-08-06T04:40:39.524Z,56.80
2018-08-06T04:43:15.973Z,56.90
2018-08-06T04:45:52.425Z,57.00
2018-08-06T04:48:28.863Z,56.80
2018-08-06T04:51:05.188Z,56.60
2018-08-06T04:53:41.504Z,56.50
2018-08-06T04:56:18.108Z,56.90
2018-08-06T04:58:54.638Z,57.30
2018-08-06T05:01:31.075Z,56.60
2018-08-06T05:04:07.788Z,56.50
2018-08-06T05:06:44.177Z,56.10
2018-08-06T05:09:23.675Z,56.20
2018-08-06T05:11:59.959Z,56.20
2018-08-06T05:14:37.495Z,56.60
2018-08-06T05:17:14.133Z,56.50
2018-08-06T05:19:50.599Z,56.30
2018-08-06T05:22:31.728Z,56.30
2018-08-06T05:25:08.020Z,56.40
2018-08-06T05:27:44.636Z,55.90
2018-08-06T05:30:21.310Z,55.80
2018-08-06T05:32:59.843Z,56.20
2018-08-06T05:35:36.250Z,56.10
2018-08-06T05:38:13.612Z,56.00
2018-08-06T05:40:50.319Z,55.40
2018-08-06T05:43:26.793Z,55.30
2018-08-06T05:46:03.232Z,54.90
2018-08-06T05:48:40.389Z,54.30
2018-08-06T05:51:17.073Z,53.20
2018-08-06T05:53:53.584Z,52.00
2018-08-06T05:56:30.408Z,51.20
2018-08-06T05:59:06.865Z,49.70
2018-08-06T06:01:43.390Z,48.20
2018-08-06T06:04:20.041Z,46.50
2018-08-06T06:06:56.383Z,46.60
2018-08-06T06:09:32.685Z,44.80
2018-08-06T06:12:09.132Z,43.70
2018-08-06T06:14:45.436Z,43.90
2018-08-06T06:17:21.940Z,42.50
2018-08-06T06:19:58.580Z,41.40
2018-08-06T06:22:35.089Z,41.10
2018-08-06T06:25:13.064Z,40.70
2018-08-06T06:27:49.320Z,39.90
2018-08-06T06:30:25.722Z,40.20
2018-08-06T06:33:01.985Z,39.10
2018-08-06T06:35:38.429Z,38.70
2018-08-06T06:38:14.914Z,39.00
2018-08-06T06:40:51.140Z,38.30
2018-08-06T06:43:28.352Z,37.60
2018-08-06T06:46:05.068Z,37.10
2018-08-06T06:48:41.569Z,37.80
2018-08-06T06:51:17.948Z,37.40
2018-08-06T06:53:54.222Z,36.10
2018-08-06T06:56:30.576Z,35.80
2018-08-06T06:59:07.528Z,36.20
2018-08-06T07:01:43.803Z,35.90
2018-08-06T07:04:20.225Z,35.20
2018-08-06T07:06:56.555Z,35.00
2018-08-06T07:09:32.843Z,35.60
2018-08-06T07:12:09.299Z,35.30
2018-08-06T07:14:45.688Z,34.60
2018-08-06T07:17:22.017Z,34.70
2018-08-06T07:19:58.512Z,33.90
2018-08-06T07:22:35.054Z,34.10
2018-08-06T07:25:12.281Z,33.70
2018-08-06T07:27:48.624Z,33.80
2018-08-06T07:30:24.975Z,33.90
2018-08-06T07:33:01.503Z,33.70
2018-08-06T07:35:37.914Z,33.60
2018-08-06T07:38:14.117Z,32.60
2018-08-06T07:40:50.571Z,33.10
2018-08-06T07:43:26.984Z,32.90
2018-08-06T07:46:03.420Z,32.80
2018-08-06T07:48:39.952Z,32.70
2018-08-06T07:51:16.221Z,32.60
2018-08-06T07:53:52.685Z,32.80
2018-08-06T07:56:29.168Z,32.10
2018-08-06T07:59:06.552Z,31.70
2018-08-06T08:01:43.010Z,32.00
2018-08-06T08:04:19.582Z,31.50
2018-08-06T08:06:55.931Z,32.10
2018-08-06T08:09:32.213Z,32.60
2018-08-06T08:12:08.490Z,31.00
2018-08-06T08:14:45.131Z,32.20
2018-08-06T08:17:21.734Z,31.10
2018-08-06T08:19:58.320Z,32.60
2018-08-06T08:22:34.676Z,31.70
2018-08-06T08:25:15.300Z,30.90
2018-08-06T08:27:51.831Z,31.30
2018-08-06T08:30:28.308Z,31.70
2018-08-06T08:33:04.694Z,31.10
2018-08-06T08:35:41.340Z,31.30
2018-08-06T08:38:17.772Z,31.50
2018-08-06T08:40:54.063Z,30.60
2018-08-06T08:43:30.573Z,31.20
2018-08-06T08:46:08.070Z,30.50
2018-08-06T08:48:44.528Z,30.00
2018-08-06T08:51:21.125Z,29.50
2018-08-06T08:53:57.536Z,30.80
2018-08-06T08:56:33.780Z,29.70
2018-08-06T08:59:10.149Z,30.30
2018-08-06T09:01:46.680Z,30.40
2018-08-06T09:04:23.110Z,29.20
2018-08-06T09:06:59.567Z,29.80
2018-08-06T09:09:35.955Z,29.40
2018-08-06T09:12:12.588Z,30.20
2018-08-06T09:14:49.160Z,30.60
2018-08-06T09:17:25.387Z,29.90
2018-08-06T09:20:01.822Z,30.60
2018-08-06T09:22:38.696Z,30.70
2018-08-06T09:25:15.384Z,29.10
2018-08-06T09:27:52.222Z,29.70
2018-08-06T09:30:28.819Z,30.50
2018-08-06T09:33:05.199Z,30.30
2018-08-06T09:35:41.640Z,30.10
2018-08-06T09:38:18.177Z,29.70
2018-08-06T09:40:54.480Z,30.20
2018-08-06T09:43:30.888Z,30.00
2018-08-06T09:46:07.623Z,30.20
2018-08-06T09:48:43.983Z,29.60
2018-08-06T09:51:20.421Z,31.40
2018-08-06T09:53:56.829Z,30.20
2018-08-06T09:56:33.293Z,29.00
2018-08-06T09:59:09.736Z,28.20
2018-08-06T10:01:51.227Z,28.80
2018-08-06T10:04:28.272Z,29.40
2018-08-06T10:07:04.602Z,31.00
2018-08-06T10:09:40.957Z,30.80
2018-08-06T10:12:17.405Z,29.40
2018-08-06T10:14:53.862Z,29.10
2018-08-06T10:17:30.124Z,28.50
2018-08-06T10:20:09.872Z,29.50
2018-08-06T10:22:46.812Z,28.90
2018-08-06T10:25:23.273Z,30.80
2018-08-06T10:27:59.694Z,30.40
2018-08-06T10:30:36.223Z,29.80
2018-08-06T10:33:12.709Z,29.20
2018-08-06T10:35:49.088Z,29.00
2018-08-06T10:38:25.476Z,30.50
2018-08-06T10:41:01.930Z,29.50
2018-08-06T10:43:38.288Z,30.00
2018-08-06T10:46:14.680Z,30.80
2018-08-06T10:48:50.911Z,29.90
2018-08-06T10:51:27.279Z,29.90
2018-08-06T10:54:03.660Z,30.80
2018-08-06T10:56:40.158Z,29.90
2018-08-06T10:59:16.600Z,29.20
2018-08-06T11:01:52.851Z,30.10
2018-08-06T11:04:29.144Z,30.20
2018-08-06T11:07:05.587Z,29.90
2018-08-06T11:09:42.146Z,29.20
2018-08-06T11:12:18.563Z,29.20
2018-08-06T11:14:54.971Z,28.70
2018-08-06T11:17:31.445Z,27.70
2018-08-06T11:20:10.125Z,29.80
2018-08-06T11:22:46.528Z,29.60
2018-08-06T11:25:23.642Z,28.90
2018-08-06T11:27:59.895Z,29.10
2018-08-06T11:30:39.152Z,29.20
2018-08-06T11:33:16.125Z,29.90
2018-08-06T11:35:53.341Z,31.10
2018-08-06T11:38:30.387Z,31.10
2018-08-06T11:41:06.654Z,30.70
2018-08-06T11:43:43.104Z,30.00
2018-08-06T11:46:19.471Z,29.50
2018-08-06T11:48:55.856Z,29.30
2018-08-06T11:51:32.149Z,28.10
2018-08-06T11:54:09.261Z,29.80
2018-08-06T11:56:45.707Z,30.00
2018-08-06T11:59:22.037Z,29.30
2018-08-06T12:01:58.372Z,29.60
2018-08-06T12:04:34.708Z,30.30
2018-08-06T12:07:11.345Z,29.30
2018-08-06T12:09:47.848Z,30.40
2018-08-06T12:12:25.427Z,30.40
2018-08-06T12:15:01.714Z,29.80
2018-08-06T12:17:39.690Z,29.20
2018-08-06T12:20:18.188Z,30.50
2018-08-06T12:22:54.311Z,30.20
2018-08-06T12:25:30.646Z,29.60
2018-08-06T12:28:07.163Z,29.90
2018-08-06T12:30:43.565Z,29.70
2018-08-06T12:33:19.939Z,29.50
2018-08-06T12:35:56.374Z,29.70
2018-08-06T12:38:48.442Z,30.30
2018-08-06T12:41:24.716Z,30.90
2018-08-06T12:44:00.966Z,30.30
2018-08-06T12:46:37.749Z,30.50
2018-08-06T12:49:14.171Z,29.40
2018-08-06T12:51:50.787Z,28.80
2018-08-06T12:54:27.200Z,29.50
2018-08-06T12:57:03.651Z,29.20
2018-08-06T12:59:40.262Z,27.90
2018-08-06T13:02:16.848Z,28.50
2018-08-06T13:04:53.233Z,29.50
2018-08-06T13:07:29.599Z,28.60
2018-08-06T13:10:06.674Z,29.20
2018-08-06T13:12:43.172Z,29.40
2018-08-06T13:15:19.547Z,30.50
2018-08-06T13:17:56.034Z,29.20
2018-08-06T13:20:32.474Z,29.40
2018-08-06T13:23:09.264Z,30.40
2018-08-06T13:25:45.660Z,30.30
2018-08-06T13:28:21.976Z,29.90
2018-08-06T13:30:58.435Z,29.80
2018-08-06T13:33:34.837Z,29.70
2018-08-06T13:36:11.482Z,30.20
2018-08-06T13:38:47.948Z,30.20
2018-08-06T13:41:24.440Z,30.00
2018-08-06T13:44:00.851Z,30.40
2018-08-06T13:46:37.279Z,30.60
2018-08-06T13:49:13.696Z,29.80
2018-08-06T13:51:50.097Z,30.50
2018-08-06T13:54:27.284Z,30.20
2018-08-06T13:57:03.643Z,29.80
2018-08-06T13:59:40.250Z,29.40
2018-08-06T14:02:16.604Z,30.40
2018-08-06T14:04:53.183Z,29.10
2018-08-06T14:07:29.630Z,29.60
2018-08-06T14:10:07.258Z,30.10
2018-08-06T14:12:43.708Z,29.80
2018-08-06T14:15:20.116Z,29.90
2018-08-06T14:17:56.476Z,29.80
2018-08-06T14:20:32.732Z,29.70
2018-08-06T14:23:10.162Z,30.40
2018-08-06T14:25:46.658Z,30.60
2018-08-06T14:28:22.803Z,30.40
2018-08-06T14:30:59.329Z,29.90
2018-08-06T14:33:35.575Z,29.40
2018-08-06T14:36:12.017Z,30.10
2018-08-06T14:38:48.398Z,29.60
2018-08-06T14:41:24.792Z,29.40
2018-08-06T14:44:01.220Z,30.20
2018-08-06T14:46:38.401Z,30.30
2018-08-06T14:49:14.656Z,30.20
2018-08-06T14:51:51.010Z,30.60
2018-08-06T14:57:03.284Z,30.10
2018-08-06T14:59:39.861Z,30.50
2018-08-06T15:02:16.297Z,31.60
2018-08-06T15:04:52.650Z,31.80
2018-08-06T15:07:28.996Z,31.80
2018-08-06T15:10:07.268Z,31.20
2018-08-06T15:12:43.803Z,31.00
2018-08-06T15:15:20.315Z,31.10
2018-08-06T15:17:56.698Z,30.70
2018-08-06T15:20:33.046Z,31.10
2018-08-06T15:23:09.601Z,31.40
2018-08-06T15:25:45.883Z,31.50
2018-08-06T15:28:22.260Z,30.40
2018-08-06T15:30:58.635Z,30.30
2018-08-06T15:33:34.982Z,31.30
2018-08-06T15:36:11.613Z,30.80
2018-08-06T15:38:48.055Z,30.70
2018-08-06T15:41:24.498Z,30.40
2018-08-06T15:44:00.876Z,30.70
2018-08-06T15:46:37.432Z,30.60
2018-08-06T15:49:13.912Z,30.60
2018-08-06T15:51:50.379Z,30.40
2018-08-06T15:54:26.796Z,30.40
2018-08-06T15:57:03.235Z,30.50
2018-08-06T15:59:39.688Z,31.00
2018-08-06T16:02:16.060Z,30.70
2018-08-06T16:04:52.484Z,30.90
2018-08-06T16:07:28.867Z,30.40
2018-08-06T16:10:06.958Z,30.60
2018-08-06T16:12:43.561Z,30.30
2018-08-06T16:15:20.006Z,30.60
2018-08-06T16:17:56.386Z,30.10
2018-08-06T16:20:32.911Z,30.40
2018-08-06T16:23:10.155Z,30.40
2018-08-06T16:25:46.583Z,30.80
2018-08-06T16:28:23.056Z,30.40
2018-08-06T16:30:59.616Z,30.10
2018-08-06T16:33:35.995Z,29.80
2018-08-06T16:36:12.541Z,30.50
2018-08-06T16:38:48.931Z,30.20
2018-08-06T16:41:25.464Z,31.10
2018-08-06T16:44:01.796Z,30.30
2018-08-06T16:46:38.221Z,30.70
2018-08-06T16:49:14.524Z,30.60
2018-08-06T16:51:50.867Z,30.50
2018-08-06T16:54:27.311Z,30.80
2018-08-06T16:57:03.584Z,30.50
2018-08-06T16:59:40.178Z,30.90
2018-08-06T17:02:16.614Z,30.30
2018-08-06T17:04:53.013Z,30.30
2018-08-06T17:07:29.460Z,30.30
2018-08-06T17:10:07.160Z,30.50
2018-08-06T17:12:44.657Z,30.30
2018-08-06T17:15:21.731Z,30.20
2018-08-06T17:17:58.139Z,29.60
2018-08-06T17:20:34.600Z,29.80
2018-08-06T17:23:11.101Z,29.60
2018-08-06T17:25:47.422Z,29.80
2018-08-06T17:28:23.827Z,30.00
2018-08-06T17:31:00.130Z,30.20
2018-08-06T17:33:36.504Z,30.20
2018-08-06T17:36:12.878Z,30.40
2018-08-06T17:38:49.341Z,30.10
2018-08-06T17:41:25.802Z,30.00
2018-08-06T17:46:47.581Z,30.90
2018-08-06T17:49:23.926Z,31.40
2018-08-06T17:52:00.400Z,31.60
2018-08-06T17:54:36.819Z,32.30
2018-08-06T17:57:13.452Z,32.40
2018-08-06T17:59:49.717Z,32.60
2018-08-06T18:02:26.011Z,32.90
2018-08-06T18:05:02.287Z,33.00
2018-08-06T18:07:38.969Z,33.10
2018-08-06T18:10:16.648Z,33.30
2018-08-06T18:12:53.165Z,32.60
2018-08-06T18:15:29.508Z,32.90
2018-08-06T18:18:06.714Z,33.00
2018-08-06T18:20:43.136Z,32.80
2018-08-06T18:23:25.189Z,33.40
2018-08-06T18:26:01.579Z,33.70
2018-08-06T18:28:38.136Z,34.00
2018-08-06T18:31:14.544Z,33.50
2018-08-06T18:33:51.394Z,33.80
2018-08-06T18:36:27.874Z,34.40
2018-08-06T18:39:06.458Z,34.30
2018-08-06T18:41:43.122Z,34.40
2018-08-06T18:44:19.525Z,34.90
2018-08-06T18:46:55.952Z,34.40
2018-08-06T18:49:32.308Z,34.40
2018-08-06T18:52:08.773Z,34.60
2018-08-06T18:54:45.367Z,34.70
2018-08-06T18:57:21.707Z,35.00
2018-08-06T18:59:58.112Z,35.30
2018-08-06T19:02:34.482Z,35.40
2018-08-06T19:05:11.504Z,35.60
2018-08-06T19:07:48.011Z,36.00
2018-08-06T19:10:24.441Z,35.90
2018-08-06T19:13:06.073Z,35.80
2018-08-06T19:15:42.748Z,36.10
2018-08-06T19:18:24.383Z,36.30
2018-08-06T19:21:00.867Z,36.40
2018-08-06T19:23:37.412Z,36.20
2018-08-06T19:26:13.904Z,37.70
2018-08-06T19:28:50.247Z,37.90
2018-08-06T19:31:27.991Z,38.20
2018-08-06T19:34:04.440Z,38.80
2018-08-06T19:36:46.130Z,39.40
2018-08-06T19:39:22.579Z,40.20
2018-08-06T19:41:59.028Z,41.10
2018-08-06T19:44:35.315Z,41.00
2018-08-06T19:47:11.808Z,41.10
2018-08-06T19:49:53.888Z,41.60
2018-08-06T19:52:30.206Z,41.80
2018-08-06T19:55:12.411Z,42.10
2018-08-06T19:57:48.908Z,42.50
2018-08-06T20:00:25.284Z,42.50
2018-08-06T20:03:01.724Z,41.90
2018-08-06T20:05:38.272Z,41.90
2018-08-06T20:08:14.959Z,41.80
2018-08-06T20:10:51.631Z,42.50
2018-08-06T20:13:28.454Z,42.00
2018-08-06T20:16:05.145Z,42.80
2018-08-06T20:18:42.167Z,41.80
2018-08-06T20:21:18.828Z,41.90
2018-08-06T20:23:55.306Z,41.70
2018-08-06T20:26:31.678Z,41.70
2018-08-06T20:29:08.107Z,42.30
2018-08-06T20:31:44.775Z,42.60
2018-08-06T20:34:21.085Z,42.50
2018-08-06T20:36:57.456Z,41.90
2018-08-06T20:39:33.981Z,42.10
2018-08-06T20:42:10.512Z,41.70
2018-08-06T20:44:46.832Z,42.30
2018-08-06T20:47:23.129Z,42.70
2018-08-06T20:49:59.711Z,42.60
2018-08-06T20:52:36.184Z,42.40
2018-08-06T20:55:12.950Z,43.10
2018-08-06T20:57:49.852Z,43.70
2018-08-06T21:00:26.803Z,43.60
2018-08-06T21:03:03.155Z,43.50
2018-08-06T21:05:39.636Z,43.60
2018-08-06T21:08:16.040Z,43.80
2018-08-06T21:10:52.428Z,44.40
2018-08-06T21:13:28.696Z,44.50
2018-08-06T21:16:05.123Z,44.80
2018-08-06T21:18:41.685Z,44.50
2018-08-06T21:21:18.215Z,44.30
2018-08-06T21:23:57.879Z,44.00
2018-08-06T21:26:34.264Z,43.70
2018-08-06T21:29:10.833Z,43.70
2018-08-06T21:31:47.312Z,43.60
2018-08-06T21:34:23.791Z,44.10
2018-08-06T21:37:00.227Z,43.60
2018-08-06T21:39:36.460Z,43.60
2018-08-06T21:42:13.137Z,43.40
2018-08-06T21:44:49.565Z,44.30
2018-08-06T21:47:25.902Z,44.60
2018-08-06T21:50:02.346Z,44.40
2018-08-06T21:52:38.928Z,45.00
2018-08-06T21:55:15.464Z,44.40
2018-08-06T21:57:51.789Z,44.30
2018-08-06T22:00:42.828Z,44.10
2018-08-06T22:03:19.387Z,44.00
2018-08-06T22:05:55.632Z,44.80
2018-08-06T22:08:31.890Z,44.40
2018-08-06T22:11:08.665Z,44.90
2018-08-06T22:13:45.260Z,44.90
2018-08-06T22:16:21.608Z,45.60
2018-08-06T22:18:57.985Z,45.90
2018-08-06T22:21:34.459Z,46.70
2018-08-06T22:24:10.830Z,46.60
2018-08-06T22:26:47.349Z,46.10
2018-08-06T22:29:23.711Z,46.80
2018-08-06T22:32:00.052Z,45.60
2018-08-06T22:34:36.460Z,46.50
2018-08-06T22:37:13.243Z,45.70
2018-08-06T22:39:49.712Z,46.00
2018-08-06T22:42:25.939Z,45.60
2018-08-06T22:45:02.391Z,45.60
2018-08-06T22:47:38.881Z,46.20
2018-08-06T22:50:15.374Z,46.40
2018-08-06T22:52:51.772Z,47.20
2018-08-06T22:55:27.942Z,47.00
2018-08-06T22:58:04.341Z,46.50
2018-08-06T23:00:41.573Z,47.00
2018-08-06T23:03:17.977Z,46.70
2018-08-06T23:05:54.236Z,47.60
2018-08-06T23:08:30.623Z,47.00
2018-08-06T23:11:07.667Z,46.70
2018-08-06T23:13:44.029Z,46.80
2018-08-06T23:16:20.358Z,46.80
2018-08-06T23:18:56.731Z,46.90
2018-08-06T23:21:33.096Z,47.80
2018-08-06T23:24:09.481Z,46.90
2018-08-06T23:26:45.868Z,47.10
2018-08-06T23:29:22.228Z,48.30
2018-08-06T23:31:58.620Z,48.70
2018-08-06T23:34:35.018Z,48.90
2018-08-06T23:37:11.509Z,49.30
2018-08-06T23:39:47.876Z,49.50
2018-08-06T23:42:24.151Z,50.30
2018-08-06T23:45:00.479Z,52.20
2018-08-06T23:47:37.384Z,51.50
2018-08-06T23:50:19.424Z,51.90
2018-08-06T23:52:55.774Z,51.30
2018-08-06T23:55:34.078Z,52.10
2018-08-06T23:58:10.372Z,52.90
